createdAt,value
2018-08-12T00:01:38.127Z,1014.06
2018-08-12T00:06:33.588Z,1014.00
2018-08-12T00:11:30.103Z,1013.92
2018-08-12T00:16:25.672Z,1013.96
2018-08-12T00:21:22.166Z,1013.88
2018-08-12T00:26:19.140Z,1013.86
2018-08-12T00:31:14.526Z,1013.83
2018-08-12T00:36:10.345Z,1013.75
2018-08-12T00:41:06.202Z,1013.77
2018-08-12T00:46:03.413Z,1013.79
2018-08-12T00:50:59.695Z,1013.83
2018-08-12T00:55:56.477Z,1013.76
2018-08-12T01:00:51.822Z,1013.75
2018-08-12T01:05:48.742Z,1013.69
2018-08-12T01:10:44.150Z,1013.65
2018-08-12T01:15:40.143Z,1013.59
2018-08-12T01:20:35.626Z,1013.65
2018-08-12T01:25:31.378Z,1013.73
2018-08-12T01:30:26.961Z,1013.65
2018-08-12T01:35:22.663Z,1013.70
2018-08-12T01:40:18.446Z,1013.61
2018-08-12T01:45:15.561Z,1013.60
2018-08-12T01:50:10.948Z,1013.55
2018-08-12T01:55:08.082Z,1013.39
2018-08-12T02:00:04.463Z,1013.38
2018-08-12T02:05:01.341Z,1013.21
2018-08-12T02:09:57.204Z,1013.16
2018-08-12T02:14:53.065Z,1013.12
2018-08-12T02:19:49.332Z,1013.03
2018-08-12T02:24:45.246Z,1012.96
2018-08-12T02:29:42.349Z,1012.81
2018-08-12T02:34:38.904Z,1012.88
2018-08-12T02:39:35.502Z,1012.80
2018-08-12T02:44:32.130Z,1012.74
2018-08-12T02:49:28.509Z,1012.76
2018-08-12T02:54:24.104Z,1012.69
2018-08-12T02:59:19.832Z,1012.72
2018-08-12T03:04:15.536Z,1012.54
2018-08-12T03:09:11.758Z,1012.67
2018-08-12T03:14:07.664Z,1012.54
2018-08-12T03:19:03.490Z,1012.44
2018-08-12T03:24:00.079Z,1012.40
2018-08-12T03:28:55.666Z,1012.38
2018-08-12T03:33:52.412Z,1012.29
2018-08-12T03:38:47.999Z,1012.26
2018-08-12T03:43:44.049Z,1012.19
2018-08-12T03:48:39.671Z,1012.19
2018-08-12T03:53:36.980Z,1012.19
2018-08-12T03:58:32.990Z,1012.14
2018-08-12T04:03:28.709Z,1012.08
2018-08-12T04:08:25.697Z,1012.00
2018-08-12T04:13:21.441Z,1011.95
2018-08-12T04:18:17.002Z,1011.89
2018-08-12T04:23:12.746Z,1011.94
2018-08-12T04:28:09.908Z,1011.95
2018-08-12T04:33:05.676Z,1011.90
2018-08-12T04:38:01.453Z,1011.93
2018-08-12T04:42:57.500Z,1011.79
2018-08-12T04:47:53.354Z,1011.79
2018-08-12T04:52:48.978Z,1011.71
2018-08-12T04:57:44.954Z,1011.74
2018-08-12T05:02:40.521Z,1011.77
2018-08-12T05:07:36.846Z,1011.70
2018-08-12T05:12:32.739Z,1011.65
2018-08-12T05:17:29.686Z,1011.65
2018-08-12T05:22:26.476Z,1011.65
2018-08-12T05:27:22.191Z,1011.54
2018-08-12T05:32:18.564Z,1011.49
2018-08-12T05:37:15.490Z,1011.51
2018-08-12T05:42:11.152Z,1011.46
2018-08-12T05:47:07.095Z,1011.53
2018-08-12T05:52:03.029Z,1011.43
2018-08-12T05:57:00.760Z,1011.43
2018-08-12T06:01:56.290Z,1011.31
2018-08-12T06:06:52.126Z,1011.27
2018-08-12T06:11:48.442Z,1011.23
2018-08-12T06:16:44.137Z,1011.15
2018-08-12T06:21:40.313Z,1011.17
2018-08-12T06:26:36.464Z,1011.09
2018-08-12T06:31:32.525Z,1011.14
2018-08-12T06:36:28.547Z,1011.13
2018-08-12T06:41:24.855Z,1010.96
2018-08-12T06:46:20.704Z,1010.97
2018-08-12T06:51:16.676Z,1010.87
2018-08-12T06:56:12.497Z,1011.03
2018-08-12T07:01:09.359Z,1011.12
2018-08-12T07:06:05.325Z,1011.04
2018-08-12T07:11:01.139Z,1011.10
2018-08-12T07:15:57.293Z,1011.01
2018-08-12T07:20:53.840Z,1011.02
2018-08-12T07:25:51.097Z,1010.94
2018-08-12T07:30:46.841Z,1010.94
2018-08-12T07:35:43.413Z,1010.94
2018-08-12T07:40:41.366Z,1010.90
2018-08-12T07:45:39.509Z,1010.81
2018-08-12T07:50:36.825Z,1010.85
2018-08-12T07:55:35.378Z,1010.81
2018-08-12T08:00:33.082Z,1010.72
2018-08-12T08:05:31.359Z,1010.73
2018-08-12T08:10:29.791Z,1010.55
2018-08-12T08:15:25.386Z,1010.61
2018-08-12T08:20:21.785Z,1010.57
2018-08-12T08:25:18.718Z,1010.39
2018-08-12T08:30:13.540Z,1010.52
2018-08-12T08:35:10.756Z,1010.52
2018-08-12T08:40:06.968Z,1010.77
2018-08-12T08:45:03.851Z,1010.45
2018-08-12T08:49:59.425Z,1010.27
2018-08-12T08:54:54.119Z,1010.25
2018-08-12T08:59:49.398Z,1010.22
2018-08-12T09:04:44.413Z,1010.19
2018-08-12T09:09:39.929Z,1010.15
2018-08-12T09:14:35.766Z,1010.13
2018-08-12T09:19:31.576Z,1010.03
2018-08-12T09:24:28.359Z,1010.02
2018-08-12T09:29:25.243Z,1009.94
2018-08-12T09:34:20.983Z,1009.96
2018-08-12T09:39:18.047Z,1010.25
2018-08-12T09:44:16.658Z,1010.08
2018-08-12T09:49:14.344Z,1010.00
2018-08-12T09:54:10.378Z,1009.98
2018-08-12T09:59:08.360Z,1009.91
2018-08-12T10:04:04.972Z,1009.97
2018-08-12T10:09:01.539Z,1009.97
2018-08-12T10:13:57.966Z,1009.83
2018-08-12T10:18:54.352Z,1009.95
2018-08-12T10:23:51.630Z,1009.82
2018-08-12T10:28:48.354Z,1009.66
2018-08-12T10:33:45.198Z,1009.57
2018-08-12T10:38:42.211Z,1009.57
2018-08-12T10:43:38.997Z,1009.30
2018-08-12T10:48:35.417Z,1009.41
2018-08-12T10:53:31.894Z,1009.31
2018-08-12T10:58:29.571Z,1009.17
2018-08-12T11:03:25.965Z,1009.10
2018-08-12T11:08:22.501Z,1009.09
2018-08-12T11:13:19.981Z,1008.99
2018-08-12T11:18:17.146Z,1008.96
2018-08-12T11:23:13.983Z,1008.88
2018-08-12T11:28:10.046Z,1008.87
2018-08-12T11:33:06.545Z,1008.76
2018-08-12T11:38:02.312Z,1008.67
2018-08-12T11:42:58.625Z,1008.66
2018-08-12T11:47:55.116Z,1008.64
2018-08-12T11:52:51.991Z,1008.52
2018-08-12T11:57:49.433Z,1008.47
2018-08-12T12:02:47.622Z,1008.46
2018-08-12T12:07:42.845Z,1008.45
2018-08-12T12:12:37.538Z,1008.35
2018-08-12T12:17:33.705Z,1008.24
2018-08-12T12:22:28.771Z,1008.15
2018-08-12T12:27:24.183Z,1008.08
2018-08-12T12:32:20.246Z,1008.01
2018-08-12T12:37:14.450Z,1007.89
2018-08-12T12:42:12.944Z,1007.89
2018-08-12T12:47:07.857Z,1007.89
2018-08-12T12:52:03.035Z,1007.72
2018-08-12T12:56:59.259Z,1007.70
2018-08-12T13:01:54.825Z,1007.54
2018-08-12T13:06:50.916Z,1007.56
2018-08-12T13:11:49.406Z,1007.51
2018-08-12T13:16:45.767Z,1007.42
2018-08-12T13:21:42.048Z,1007.41
2018-08-12T13:26:37.342Z,1007.31
2018-08-12T13:31:33.396Z,1007.20
2018-08-12T13:36:29.681Z,1007.22
2018-08-12T13:41:26.054Z,1006.98
2018-08-12T13:46:21.830Z,1007.06
2018-08-12T13:51:17.395Z,1006.91
2018-08-12T13:56:12.830Z,1006.98
2018-08-12T14:01:08.092Z,1006.78
2018-08-12T14:06:03.725Z,1006.70
2018-08-12T14:10:59.427Z,1006.66
2018-08-12T14:15:56.609Z,1006.58
2018-08-12T14:20:52.183Z,1006.48
2018-08-12T14:25:48.542Z,1006.39
2018-08-12T14:30:44.865Z,1006.34
2018-08-12T14:35:41.137Z,1006.24
2018-08-12T14:40:37.032Z,1006.27
2018-08-12T14:45:33.330Z,1006.12
2018-08-12T14:50:29.353Z,1006.07
2018-08-12T14:55:25.236Z,1006.02
2018-08-12T15:00:22.148Z,1005.88
2018-08-12T15:05:17.792Z,1005.93
2018-08-12T15:10:13.843Z,1005.80
2018-08-12T15:15:09.977Z,1005.77
2018-08-12T15:20:06.013Z,1005.76
2018-08-12T15:25:01.912Z,1005.63
2018-08-12T15:29:58.192Z,1005.62
2018-08-12T15:34:55.240Z,1005.59
2018-08-12T15:39:51.299Z,1005.56
2018-08-12T15:44:48.468Z,1005.45
2018-08-12T15:49:44.146Z,1005.36
2018-08-12T15:54:41.123Z,1005.28
2018-08-12T15:59:36.747Z,1005.35
2018-08-12T16:04:32.562Z,1005.24
2018-08-12T16:09:28.562Z,1005.26
2018-08-12T16:14:24.494Z,1005.14
2018-08-12T16:19:20.584Z,1005.20
2018-08-12T16:24:16.666Z,1005.06
2018-08-12T16:29:12.667Z,1005.02
2018-08-12T16:34:09.732Z,1005.14
2018-08-12T16:39:06.468Z,1005.02
2018-08-12T16:44:02.208Z,1005.01
2018-08-12T16:48:58.991Z,1004.88
2018-08-12T16:53:55.528Z,1004.81
2018-08-12T16:58:52.308Z,1004.72
2018-08-12T17:03:49.098Z,1004.65
2018-08-12T17:08:46.111Z,1004.70
2018-08-12T17:13:42.570Z,1004.59
2018-08-12T17:18:38.152Z,1004.61
2018-08-12T17:23:34.370Z,1004.52
2018-08-12T17:28:31.423Z,1004.47
2018-08-12T17:33:27.133Z,1004.43
2018-08-12T17:38:23.106Z,1004.42
2018-08-12T17:43:18.942Z,1004.37
2018-08-12T17:48:15.477Z,1004.30
2018-08-12T17:53:11.464Z,1004.28
2018-08-12T17:58:07.338Z,1004.27
2018-08-12T18:03:03.428Z,1004.10
2018-08-12T18:07:59.142Z,1004.18
2018-08-12T18:12:55.254Z,1004.14
2018-08-12T18:17:52.042Z,1004.09
2018-08-12T18:22:47.992Z,1004.10
2018-08-12T18:27:43.690Z,1004.10
2018-08-12T18:32:39.516Z,1004.09
2018-08-12T18:37:35.407Z,1004.06
2018-08-12T18:42:31.282Z,1004.03
2018-08-12T18:47:28.345Z,1004.10
2018-08-12T18:52:23.941Z,1003.99
2018-08-12T18:57:20.341Z,1004.15
2018-08-12T19:02:16.763Z,1004.01
2018-08-12T19:07:12.584Z,1004.09
2018-08-12T19:12:08.309Z,1004.00
2018-08-12T19:17:04.184Z,1004.11
2018-08-12T19:22:00.308Z,1004.14
2018-08-12T19:26:56.133Z,1004.09
2018-08-12T19:31:52.169Z,1004.07
2018-08-12T19:36:48.467Z,1004.09
2018-08-12T19:41:44.881Z,1004.12
2018-08-12T19:46:40.922Z,1004.03
2018-08-12T19:51:36.610Z,1003.91
2018-08-12T19:56:32.350Z,1003.92
2018-08-12T20:01:28.540Z,1003.89
2018-08-12T20:06:24.932Z,1003.86
2018-08-12T20:11:20.615Z,1003.83
2018-08-12T20:16:16.595Z,1003.73
2018-08-12T20:21:12.415Z,1003.76
2018-08-12T20:26:09.321Z,1003.77
2018-08-12T20:31:05.919Z,1003.69
2018-08-12T20:36:01.335Z,1003.70
2018-08-12T20:40:57.242Z,1003.74
2018-08-12T20:45:53.119Z,1003.74
2018-08-12T20:50:49.302Z,1003.67
2018-08-12T20:55:45.246Z,1003.58
2018-08-12T21:00:41.137Z,1003.48
2018-08-12T21:05:36.997Z,1003.53
2018-08-12T21:10:32.648Z,1003.50
2018-08-12T21:15:28.943Z,1003.44
2018-08-12T21:20:24.809Z,1003.36
2018-08-12T21:25:21.809Z,1003.34
2018-08-12T21:30:17.671Z,1003.22
2018-08-12T21:35:13.533Z,1003.15
2018-08-12T21:40:09.299Z,1003.04
2018-08-12T21:45:06.272Z,1003.12
2018-08-12T21:50:01.767Z,1003.05
2018-08-12T21:54:57.825Z,1003.00
2018-08-12T21:59:53.801Z,1002.99
2018-08-12T22:04:49.553Z,1002.98
2018-08-12T22:09:46.352Z,1002.89
2018-08-12T22:14:41.885Z,1002.88
2018-08-12T22:19:37.677Z,1002.82
2018-08-12T22:24:34.604Z,1002.80
2018-08-12T22:29:30.130Z,1002.76
2018-08-12T22:34:26.147Z,1002.76
2018-08-12T22:39:22.252Z,1002.71
2018-08-12T22:44:18.506Z,1002.75
2018-08-12T22:49:14.323Z,1002.74
2018-08-12T22:54:10.165Z,1002.68
2018-08-12T22:59:05.916Z,1002.67
2018-08-12T23:04:02.422Z,1002.59
2018-08-12T23:08:58.351Z,1002.61
2018-08-12T23:13:55.295Z,1002.60
2018-08-12T23:18:51.614Z,1002.62
2018-08-12T23:23:47.440Z,1002.54
2018-08-12T23:28:43.485Z,1002.52
2018-08-12T23:33:39.290Z,1002.44
2018-08-12T23:38:35.336Z,1002.38
2018-08-12T23:43:31.179Z,1002.37
2018-08-12T23:48:27.660Z,1002.11
2018-08-12T23:53:24.573Z,1002.17
2018-08-12T23:58:20.461Z,1002.23
